Terminal Aerodrome Forecast
Issued by NWS Jacksonville, FL

Home | Current Version | Previous Version | Text Only | Print | Product List | Glossary On
Versions: 1 2 3 4 5 6 7 8 9 10 11 12 13 14 15 16 17 18
000
FTUS42 KJAX 291158 CCA
TAFGNV
TAF COR
KGNV 291158Z 2912/3012 31007KT 6SM BR OVC003
     FM291300 32007KT P6SM SCT002 BKN008
     FM291400 28007KT P6SM SCT050
     FM300100 VRB02KT P6SM FEW250
     FM300700 00000KT 2SM BR FEW250
     FM301000 00000KT 1/2SM FG SCT002=

USA.gov is the U.S. government's official web portal to all federal, state and local government web resources and services.